Asiatic Wave — 9V8790 — position and weather

sailwx.info

Track history (hours):
 
Tides and Currents Weather Stations Pressure Air Temp Water Temp Dewpoint Dewpoint Depression Visibility Wind Speed Wind Dir Waves Ship Positions

Asiatic Wave

Last reported at 2017-Jan-17 20:32 UTC. Time now 2017-Jan-18 13:56 UTC.
Position N 01°23' E 104°00'.

Length 148 m; draft 7.5 m.

Type: Ship (hazmat cat A). MMSI: 564211000.

Date/timePositionNaut miles runAvg speedWind from/ knotsBaromVisibWave heightAir tempDewpointWater temp
2017-Jan-17 20:32N 01°23' E 104°00'8 7.6
2017-Jan-17 19:32N 01°26' E 103°53'0 0.0
2017-Jan-17 18:31N 01°26' E 103°53'0 0.0
2017-Jan-17 17:31N 01°26' E 103°53'0 0.0
2017-Jan-17 16:31N 01°26' E 103°53'  
2017-Jan-15 12:09N 01°15' E 104°03'710.9
2017-Jan-15 11:33N 01°13' E 103°57'7811.1
2017-Jan-15 04:32N 01°39' E 102°43'1212.2
2017-Jan-15 03:33N 01°44' E 102°32'1212.1
2017-Jan-15 02:34N 01°50' E 102°21'6 0.1
2017-Jan-13 02:07N 01°55' E 102°21'711.6
2017-Jan-13 01:32N 01°52' E 102°27'9413.3
2017-Jan-12 18:30N 01°12' E 103°52'  
Track history (hours):
 
Tides and Currents Weather Stations Pressure Air Temp Water Temp Dewpoint Dewpoint Depression Visibility Wind Speed Wind Dir Waves Ship Positions

Asiatic Wave

Last reported at 2017-Jan-17 20:32 UTC. Time now 2017-Jan-18 13:56 UTC.
Position N 01°23' E 104°00'.

Length 148 m; draft 7.5 m.

Type: Ship (hazmat cat A). MMSI: 564211000.

Date/timePositionNaut miles runAvg speedWind from/ knotsBaromVisibWave heightAir tempDewpointWater temp
2017-Jan-17 20:32N 01°23' E 104°00'8 7.6
2017-Jan-17 19:32N 01°26' E 103°53'0 0.0
2017-Jan-17 18:31N 01°26' E 103°53'0 0.0
2017-Jan-17 17:31N 01°26' E 103°53'0 0.0
2017-Jan-17 16:31N 01°26' E 103°53'  
2017-Jan-15 12:09N 01°15' E 104°03'710.9
2017-Jan-15 11:33N 01°13' E 103°57'7811.1
2017-Jan-15 04:32N 01°39' E 102°43'1212.2
2017-Jan-15 03:33N 01°44' E 102°32'1212.1
2017-Jan-15 02:34N 01°50' E 102°21'6 0.1
2017-Jan-13 02:07N 01°55' E 102°21'711.6
2017-Jan-13 01:32N 01°52' E 102°27'9413.3
2017-Jan-12 18:30N 01°12' E 103°52'  

Dump ship's entire track history